sensor_id;sensor_type;location;lat;lon;timestamp;pressure;altitude;pressure_sealevel;temperature;humidity
33191;BME280;19554;42.652;23.364;2023-03-23T00:01:12;94598.19;;;8.98;75.05
33191;BME280;19554;42.652;23.364;2023-03-23T00:03:39;94598.72;;;9.00;74.78
33191;BME280;19554;42.652;23.364;2023-03-23T00:06:06;94592.84;;;9.03;74.47
33191;BME280;19554;42.652;23.364;2023-03-23T00:08:41;94601.34;;;9.05;74.23
33191;BME280;19554;42.652;23.364;2023-03-23T00:11:20;94586.16;;;9.06;74.15
33191;BME280;19554;42.652;23.364;2023-03-23T00:13:49;94594.44;;;9.04;73.98
33191;BME280;19554;42.652;23.364;2023-03-23T00:16:24;94577.28;;;8.86;74.23
33191;BME280;19554;42.652;23.364;2023-03-23T00:19:05;94593.47;;;8.90;74.02
33191;BME280;19554;42.652;23.364;2023-03-23T00:21:34;94544.25;;;8.48;73.98
33191;BME280;19554;42.652;23.364;2023-03-23T00:24:08;94599.91;;;8.84;74.18
33191;BME280;19554;42.652;23.364;2023-03-23T00:26:39;94600.44;;;8.81;74.13
33191;BME280;19554;42.652;23.364;2023-03-23T00:29:05;94602.56;;;8.78;73.65
33191;BME280;19554;42.652;23.364;2023-03-23T00:31:32;94584.06;;;8.63;73.70
33191;BME280;19554;42.652;23.364;2023-03-23T00:34:01;94602.91;;;8.72;74.55
33191;BME280;19554;42.652;23.364;2023-03-23T00:36:33;94609.84;;;8.68;74.92
33191;BME280;19554;42.652;23.364;2023-03-23T00:39:01;94610.38;;;8.65;74.76
33191;BME280;19554;42.652;23.364;2023-03-23T00:41:27;94612.78;;;8.61;73.00
33191;BME280;19554;42.652;23.364;2023-03-23T00:43:57;94613.63;;;8.62;72.53
33191;BME280;19554;42.652;23.364;2023-03-23T00:46:24;94614.94;;;8.59;71.86
33191;BME280;19554;42.652;23.364;2023-03-23T00:48:50;94522.69;;;7.95;70.86
33191;BME280;19554;42.652;23.364;2023-03-23T00:51:16;94619.25;;;8.55;70.18
33191;BME280;19554;42.652;23.364;2023-03-23T00:53:41;94619.25;;;8.55;69.66
33191;BME280;19554;42.652;23.364;2023-03-23T00:56:08;94609.69;;;8.44;69.65
33191;BME280;19554;42.652;23.364;2023-03-23T00:58:34;94606.50;;;8.47;69.64
33191;BME280;19554;42.652;23.364;2023-03-23T01:00:59;94631.72;;;8.54;69.81
33191;BME280;19554;42.652;23.364;2023-03-23T01:03:25;94632.78;;;8.53;69.43
33191;BME280;19554;42.652;23.364;2023-03-23T01:05:52;94628.25;;;8.54;68.79
33191;BME280;19554;42.652;23.364;2023-03-23T01:08:17;94627.22;;;8.50;68.10
33191;BME280;19554;42.652;23.364;2023-03-23T01:10:44;94623.00;;;8.44;68.12
33191;BME280;19554;42.652;23.364;2023-03-23T01:13:11;94621.94;;;8.40;68.00
33191;BME280;19554;42.652;23.364;2023-03-23T01:15:36;94626.75;;;8.32;68.35
33191;BME280;19554;42.652;23.364;2023-03-23T01:18:02;94617.72;;;8.23;68.79
33191;BME280;19554;42.652;23.364;2023-03-23T01:20:28;94606.09;;;8.14;68.80
33191;BME280;19554;42.652;23.364;2023-03-23T01:22:59;94619.31;;;8.29;68.84
33191;BME280;19554;42.652;23.364;2023-03-23T01:25:30;94619.06;;;8.31;68.98
33191;BME280;19554;42.652;23.364;2023-03-23T01:27:57;94610.78;;;8.32;68.98
33191;BME280;19554;42.652;23.364;2023-03-23T01:30:23;94611.03;;;8.36;68.83
33191;BME280;19554;42.652;23.364;2023-03-23T01:32:49;94614.50;;;8.42;68.87
33191;BME280;19554;42.652;23.364;2023-03-23T01:35:16;94608.09;;;8.48;68.99
33191;BME280;19554;42.652;23.364;2023-03-23T01:37:42;94594.75;;;8.53;69.11
33191;BME280;19554;42.652;23.364;2023-03-23T01:40:09;94599.00;;;8.59;69.58
33191;BME280;19554;42.652;23.364;2023-03-23T01:42:36;94590.97;;;8.64;69.59
33191;BME280;19554;42.652;23.364;2023-03-23T01:47:56;94597.84;;;8.75;69.12
33191;BME280;19554;42.652;23.364;2023-03-23T01:50:24;94587.75;;;8.72;69.37
33191;BME280;19554;42.652;23.364;2023-03-23T01:52:53;94514.03;;;8.28;68.87
33191;BME280;19554;42.652;23.364;2023-03-23T01:55:20;94460.00;;;7.94;68.37
33191;BME280;19554;42.652;23.364;2023-03-23T01:57:47;94558.00;;;8.60;69.22
33191;BME280;19554;42.652;23.364;2023-03-23T02:00:13;94589.25;;;8.84;69.39
33191;BME280;19554;42.652;23.364;2023-03-23T02:02:44;94588.69;;;8.87;69.73
33191;BME280;19554;42.652;23.364;2023-03-23T02:05:19;94588.16;;;8.90;69.82
33191;BME280;19554;42.652;23.364;2023-03-23T02:07:47;94578.06;;;8.87;69.77
33191;BME280;19554;42.652;23.364;2023-03-23T02:10:13;94587.06;;;8.96;69.99
33191;BME280;19554;42.652;23.364;2023-03-23T02:12:38;94589.13;;;8.99;69.91
33191;BME280;19554;42.652;23.364;2023-03-23T02:15:04;94585.13;;;9.01;70.57
33191;BME280;19554;42.652;23.364;2023-03-23T02:17:31;94589.66;;;9.01;71.47
33191;BME280;19554;42.652;23.364;2023-03-23T02:39:02;94591.72;;;9.09;70.43
33191;BME280;19554;42.652;23.364;2023-03-23T02:41:37;94570.50;;;8.99;70.21
33191;BME280;19554;42.652;23.364;2023-03-23T02:44:06;94583.25;;;9.02;69.95
33191;BME280;19554;42.652;23.364;2023-03-23T02:46:33;94593.97;;;8.97;69.67
33191;BME280;19554;42.652;23.364;2023-03-23T02:49:02;94593.84;;;8.73;70.04
33191;BME280;19554;42.652;23.364;2023-03-23T02:51:29;94610.22;;;8.46;70.90
33191;BME280;19554;42.652;23.364;2023-03-23T02:53:56;94606.00;;;8.29;72.62
33191;BME280;19554;42.652;23.364;2023-03-23T02:56:25;94615.72;;;7.95;75.90
33191;BME280;19554;42.652;23.364;2023-03-23T02:58:53;94618.41;;;7.74;76.92
33191;BME280;19554;42.652;23.364;2023-03-23T03:03:52;94624.84;;;7.22;78.25
33191;BME280;19554;42.652;23.364;2023-03-23T03:09:31;94626.97;;;6.95;79.23
33191;BME280;19554;42.652;23.364;2023-03-23T03:12:08;94649.75;;;6.85;79.29
33191;BME280;19554;42.652;23.364;2023-03-23T03:14:49;94626.41;;;6.77;79.94
33191;BME280;19554;42.652;23.364;2023-03-23T03:17:22;94648.16;;;6.89;80.27
33191;BME280;19554;42.652;23.364;2023-03-23T03:19:51;94653.44;;;6.79;80.39
33191;BME280;19554;42.652;23.364;2023-03-23T03:22:19;94588.09;;;6.27;80.88
33191;BME280;19554;42.652;23.364;2023-03-23T03:24:47;94653.44;;;6.69;81.45
33191;BME280;19554;42.652;23.364;2023-03-23T03:27:16;94646.03;;;6.71;81.70
33191;BME280;19554;42.652;23.364;2023-03-23T03:29:45;94651.84;;;6.68;81.77
33191;BME280;19554;42.652;23.364;2023-03-23T03:32:15;94642.84;;;6.74;81.91
33191;BME280;19554;42.652;23.364;2023-03-23T03:34:42;94650.81;;;6.84;81.47
33191;BME280;19554;42.652;23.364;2023-03-23T03:37:08;94643.88;;;6.73;80.18
33191;BME280;19554;42.652;23.364;2023-03-23T03:39:35;94648.16;;;6.89;79.46
33191;BME280;19554;42.652;23.364;2023-03-23T03:42:01;94650.84;;;6.95;78.63
33191;BME280;19554;42.652;23.364;2023-03-23T03:44:27;94645.28;;;7.01;78.50
33191;BME280;19554;42.652;23.364;2023-03-23T03:46:52;94640.50;;;7.19;77.71
33191;BME280;19554;42.652;23.364;2023-03-23T03:49:17;94636.25;;;7.33;76.71
33191;BME280;19554;42.652;23.364;2023-03-23T03:51:44;94629.63;;;7.41;75.63
33191;BME280;19554;42.652;23.364;2023-03-23T03:54:09;94645.28;;;7.57;74.50
33191;BME280;19554;42.652;23.364;2023-03-23T03:56:36;94648.72;;;7.58;73.58
33191;BME280;19554;42.652;23.364;2023-03-23T03:59:06;94602.00;;;7.31;73.27
33191;BME280;19554;42.652;23.364;2023-03-23T04:01:31;94513.66;;;6.64;73.28
33191;BME280;19554;42.652;23.364;2023-03-23T04:03:57;94647.66;;;7.54;73.47
33191;BME280;19554;42.652;23.364;2023-03-23T04:06:22;94642.34;;;7.54;73.47
33191;BME280;19554;42.652;23.364;2023-03-23T04:08:48;94645.03;;;7.59;73.75
33191;BME280;19554;42.652;23.364;2023-03-23T04:11:14;94507.56;;;6.74;73.75
33191;BME280;19554;42.652;23.364;2023-03-23T04:13:40;94641.28;;;7.70;73.71
33191;BME280;19554;42.652;23.364;2023-03-23T04:16:07;94631.69;;;7.74;73.34
33191;BME280;19554;42.652;23.364;2023-03-23T04:18:33;94625.84;;;7.77;73.05
33191;BME280;19554;42.652;23.364;2023-03-23T04:21:00;94642.84;;;7.87;72.94
33191;BME280;19554;42.652;23.364;2023-03-23T04:23:27;94637.50;;;7.92;72.34
33191;BME280;19554;42.652;23.364;2023-03-23T04:25:55;94642.28;;;7.95;72.41
33191;BME280;19554;42.652;23.364;2023-03-23T04:28:23;94640.16;;;7.97;73.22
33191;BME280;19554;42.652;23.364;2023-03-23T04:30:50;94647.56;;;8.00;73.81
33191;BME280;19554;42.652;23.364;2023-03-23T04:33:18;94635.91;;;8.01;73.34
33191;BME280;19554;42.652;23.364;2023-03-23T04:35:45;94638.56;;;8.01;73.14
33191;BME280;19554;42.652;23.364;2023-03-23T04:38:14;94639.09;;;7.98;72.67
33191;BME280;19554;42.652;23.364;2023-03-23T04:40:40;94626.84;;;8.02;71.84
33191;BME280;19554;42.652;23.364;2023-03-23T04:43:06;94631.66;;;7.95;71.98
33191;BME280;19554;42.652;23.364;2023-03-23T04:45:33;94631.69;;;7.84;71.64
33191;BME280;19554;42.652;23.364;2023-03-23T04:47:59;94636.47;;;7.88;72.45
33191;BME280;19554;42.652;23.364;2023-03-23T04:50:30;94641.78;;;7.88;72.31
33191;BME280;19554;42.652;23.364;2023-03-23T04:52:58;94647.94;;;7.73;71.75
33191;BME280;19554;42.652;23.364;2023-03-23T04:55:25;94621.13;;;7.44;71.78
33191;BME280;19554;42.652;23.364;2023-03-23T04:57:51;94667.34;;;7.53;73.06
33191;BME280;19554;42.652;23.364;2023-03-23T05:00:17;94666.81;;;7.46;74.25
33191;BME280;19554;42.652;23.364;2023-03-23T05:02:46;94638.63;;;7.34;74.99
33191;BME280;19554;42.652;23.364;2023-03-23T05:05:17;94662.81;;;7.53;75.34
33191;BME280;19554;42.652;23.364;2023-03-23T05:07:42;94625.91;;;7.36;74.96
33191;BME280;19554;42.652;23.364;2023-03-23T05:10:09;94663.59;;;7.54;74.90
33191;BME280;19554;42.652;23.364;2023-03-23T05:12:35;94640.75;;;7.38;75.38
33191;BME280;19554;42.652;23.364;2023-03-23T05:15:03;94676.34;;;7.42;76.00
33191;BME280;19554;42.652;23.364;2023-03-23T05:17:28;94673.94;;;7.20;77.93
33191;BME280;19554;42.652;23.364;2023-03-23T05:19:55;94653.50;;;7.00;78.47
33191;BME280;19554;42.652;23.364;2023-03-23T05:22:22;94631.19;;;6.96;78.12
33191;BME280;19554;42.652;23.364;2023-03-23T05:24:48;94673.44;;;7.23;78.17
33191;BME280;19554;42.652;23.364;2023-03-23T05:27:17;94666.81;;;7.25;78.74
33191;BME280;19554;42.652;23.364;2023-03-23T05:29:44;94680.59;;;7.48;78.36
33191;BME280;19554;42.652;23.364;2023-03-23T05:32:11;94599.59;;;6.63;78.54
33191;BME280;19554;42.652;23.364;2023-03-23T05:34:36;94684.81;;;7.13;79.08
33191;BME280;19554;42.652;23.364;2023-03-23T05:37:03;94690.94;;;7.24;79.50
33191;BME280;19554;42.652;23.364;2023-03-23T05:39:29;94613.66;;;6.64;79.64
33191;BME280;19554;42.652;23.364;2023-03-23T05:41:56;94698.63;;;7.15;80.57
33191;BME280;19554;42.652;23.364;2023-03-23T05:44:21;94700.22;;;7.16;80.52
33191;BME280;19554;42.652;23.364;2023-03-23T05:46:47;94700.78;;;7.33;80.42
33191;BME280;19554;42.652;23.364;2023-03-23T05:49:14;94693.88;;;7.48;79.75
33191;BME280;19554;42.652;23.364;2023-03-23T05:51:42;94699.47;;;7.67;78.21
33191;BME280;19554;42.652;23.364;2023-03-23T05:54:07;94704.50;;;7.78;78.24
33191;BME280;19554;42.652;23.364;2023-03-23T05:56:33;94638.38;;;7.51;77.86
33191;BME280;19554;42.652;23.364;2023-03-23T05:58:59;94701.53;;;7.95;77.49
33191;BME280;19554;42.652;23.364;2023-03-23T06:01:25;94570.16;;;7.36;77.07
33191;BME280;19554;42.652;23.364;2023-03-23T06:03:50;94655.00;;;8.08;76.25
33191;BME280;19554;42.652;23.364;2023-03-23T06:06:20;94652.84;;;8.25;75.54
33191;BME280;19554;42.652;23.364;2023-03-23T06:08:46;94700.53;;;8.76;75.04
33191;BME280;19554;42.652;23.364;2023-03-23T06:11:11;94703.53;;;9.09;74.48
33191;BME280;19554;42.652;23.364;2023-03-23T06:13:37;94698.84;;;9.40;73.36
33191;BME280;19554;42.652;23.364;2023-03-23T06:16:02;94706.44;;;9.57;72.41
33191;BME280;19554;42.652;23.364;2023-03-23T06:18:29;94708.91;;;9.78;71.39
33191;BME280;19554;42.652;23.364;2023-03-23T06:20:58;94721.06;;;9.94;70.48
33191;BME280;19554;42.652;23.364;2023-03-23T06:23:24;94708.28;;;9.91;70.36
33191;BME280;19554;42.652;23.364;2023-03-23T06:25:53;94713.22;;;9.73;70.92
33191;BME280;19554;42.652;23.364;2023-03-23T06:28:19;94703.69;;;9.67;71.21
33191;BME280;19554;42.652;23.364;2023-03-23T06:30:45;94707.88;;;9.39;72.63
33191;BME280;19554;42.652;23.364;2023-03-23T06:33:11;94712.56;;;9.18;73.79
33191;BME280;19554;42.652;23.364;2023-03-23T06:35:36;94708.81;;;9.19;73.71
33191;BME280;19554;42.652;23.364;2023-03-23T06:38:01;94709.19;;;9.02;74.50
33191;BME280;19554;42.652;23.364;2023-03-23T06:40:28;94634.69;;;8.48;74.45
33191;BME280;19554;42.652;23.364;2023-03-23T06:42:54;94697.00;;;8.91;74.97
33191;BME280;19554;42.652;23.364;2023-03-23T06:45:21;94720.34;;;9.10;75.76
33191;BME280;19554;42.652;23.364;2023-03-23T06:47:46;94711.94;;;9.32;74.84
33191;BME280;19554;42.652;23.364;2023-03-23T06:50:15;94711.66;;;9.72;73.70
33191;BME280;19554;42.652;23.364;2023-03-23T06:52:45;94711.47;;;9.93;72.36
33191;BME280;19554;42.652;23.364;2023-03-23T06:55:12;94723.81;;;10.42;71.75
33191;BME280;19554;42.652;23.364;2023-03-23T06:57:38;94678.75;;;10.64;69.73
33191;BME280;19554;42.652;23.364;2023-03-23T07:00:04;94703.41;;;10.99;67.79
33191;BME280;19554;42.652;23.364;2023-03-23T07:02:31;94724.19;;;11.21;67.46
33191;BME280;19554;42.652;23.364;2023-03-23T07:04:56;94722.69;;;11.34;66.54
33191;BME280;19554;42.652;23.364;2023-03-23T07:07:22;94718.50;;;11.47;66.01
33191;BME280;19554;42.652;23.364;2023-03-23T07:09:48;94645.94;;;11.21;64.77
33191;BME280;19554;42.652;23.364;2023-03-23T07:12:13;94729.81;;;11.76;65.45
33191;BME280;19554;42.652;23.364;2023-03-23T07:14:39;94726.56;;;11.98;65.01
33191;BME280;19554;42.652;23.364;2023-03-23T07:17:05;94726.97;;;12.05;64.43
33191;BME280;19554;42.652;23.364;2023-03-23T07:19:31;94727.19;;;12.23;64.45
33191;BME280;19554;42.652;23.364;2023-03-23T07:21:56;94718.81;;;12.43;63.50
33191;BME280;19554;42.652;23.364;2023-03-23T07:24:22;94718.13;;;12.79;63.25
33191;BME280;19554;42.652;23.364;2023-03-23T07:26:47;94723.94;;;13.09;61.21
33191;BME280;19554;42.652;23.364;2023-03-23T07:29:13;94722.88;;;13.10;61.68
33191;BME280;19554;42.652;23.364;2023-03-23T07:31:38;94718.31;;;13.24;61.00
33191;BME280;19554;42.652;23.364;2023-03-23T07:34:03;94721.84;;;13.33;60.20
33191;BME280;19554;42.652;23.364;2023-03-23T07:36:29;94723.94;;;13.22;59.56
33191;BME280;19554;42.652;23.364;2023-03-23T07:38:55;94721.56;;;13.35;60.71
33191;BME280;19554;42.652;23.364;2023-03-23T07:41:22;94715.00;;;13.41;60.08
33191;BME280;19554;42.652;23.364;2023-03-23T07:43:48;94726.66;;;13.59;59.08
33191;BME280;19554;42.652;23.364;2023-03-23T07:46:13;94723.38;;;13.84;59.53
33191;BME280;19554;42.652;23.364;2023-03-23T07:48:39;94719.59;;;13.85;58.48
33191;BME280;19554;42.652;23.364;2023-03-23T07:51:05;94725.81;;;13.94;58.04
33191;BME280;19554;42.652;23.364;2023-03-23T07:53:32;94732.53;;;13.83;57.72
33191;BME280;19554;42.652;23.364;2023-03-23T07:55:58;94729.13;;;13.91;57.60
33191;BME280;19554;42.652;23.364;2023-03-23T07:58:24;94735.69;;;14.08;58.63
33191;BME280;19554;42.652;23.364;2023-03-23T08:00:51;94724.91;;;13.99;56.97
33191;BME280;19554;42.652;23.364;2023-03-23T08:03:18;94736.91;;;14.24;56.93
33191;BME280;19554;42.652;23.364;2023-03-23T08:05:43;94693.34;;;14.05;56.12
33191;BME280;19554;42.652;23.364;2023-03-23T08:08:09;94742.44;;;14.28;55.35
33191;BME280;19554;42.652;23.364;2023-03-23T08:10:35;94745.97;;;14.37;54.67
33191;BME280;19554;42.652;23.364;2023-03-23T08:13:01;94741.63;;;14.50;54.27
33191;BME280;19554;42.652;23.364;2023-03-23T08:15:27;94741.13;;;14.70;53.12
33191;BME280;19554;42.652;23.364;2023-03-23T08:17:54;94737.06;;;14.81;52.76
33191;BME280;19554;42.652;23.364;2023-03-23T08:20:20;94744.63;;;14.79;53.09
33191;BME280;19554;42.652;23.364;2023-03-23T08:22:51;94735.59;;;14.75;53.66
33191;BME280;19554;42.652;23.364;2023-03-23T08:25:18;94737.22;;;14.85;53.83
33191;BME280;19554;42.652;23.364;2023-03-23T08:27:44;94719.88;;;15.00;53.19
33191;BME280;19554;42.652;23.364;2023-03-23T08:30:15;94737.81;;;15.30;50.67
33191;BME280;19554;42.652;23.364;2023-03-23T08:32:41;94739.53;;;15.26;51.34
33191;BME280;19554;42.652;23.364;2023-03-23T08:35:08;94733.50;;;15.21;51.13
33191;BME280;19554;42.652;23.364;2023-03-23T08:37:35;94733.97;;;15.14;50.77
33191;BME280;19554;42.652;23.364;2023-03-23T08:40:00;94729.22;;;15.11;51.45
33191;BME280;19554;42.652;23.364;2023-03-23T08:42:32;94732.44;;;15.30;51.02
33191;BME280;19554;42.652;23.364;2023-03-23T08:44:58;94723.22;;;15.14;49.97
33191;BME280;19554;42.652;23.364;2023-03-23T08:47:23;94731.31;;;15.31;49.40
33191;BME280;19554;42.652;23.364;2023-03-23T08:49:49;94714.72;;;15.55;48.12
33191;BME280;19554;42.652;23.364;2023-03-23T08:52:18;94718.91;;;15.70;47.05
33191;BME280;19554;42.652;23.364;2023-03-23T08:54:43;94727.13;;;15.91;45.09
33191;BME280;19554;42.652;23.364;2023-03-23T08:57:12;94728.84;;;16.04;44.32
33191;BME280;19554;42.652;23.364;2023-03-23T08:59:38;94720.41;;;16.23;43.14
33191;BME280;19554;42.652;23.364;2023-03-23T09:02:03;94726.72;;;16.36;41.51
33191;BME280;19554;42.652;23.364;2023-03-23T09:04:29;94687.53;;;15.92;42.14
33191;BME280;19554;42.652;23.364;2023-03-23T09:06:55;94727.91;;;16.00;43.18
33191;BME280;19554;42.652;23.364;2023-03-23T09:09:22;94724.41;;;16.17;43.30
33191;BME280;19554;42.652;23.364;2023-03-23T09:11:47;94728.72;;;15.83;41.80
33191;BME280;19554;42.652;23.364;2023-03-23T09:14:13;94730.13;;;15.72;41.97
33191;BME280;19554;42.652;23.364;2023-03-23T09:16:38;94730.28;;;15.67;41.32
33191;BME280;19554;42.652;23.364;2023-03-23T09:19:05;94692.41;;;14.63;43.14
33191;BME280;19554;42.652;23.364;2023-03-23T09:21:30;94730.44;;;14.87;43.57
33191;BME280;19554;42.652;23.364;2023-03-23T09:23:56;94683.09;;;14.29;44.34
33191;BME280;19554;42.652;23.364;2023-03-23T09:26:26;94733.59;;;14.27;44.82
33191;BME280;19554;42.652;23.364;2023-03-23T09:28:52;94654.91;;;13.87;45.80
33191;BME280;19554;42.652;23.364;2023-03-23T09:31:17;94724.94;;;14.08;46.03
33191;BME280;19554;42.652;23.364;2023-03-23T09:33:46;94665.47;;;13.61;46.49
33191;BME280;19554;42.652;23.364;2023-03-23T09:36:12;94717.41;;;14.10;46.40
33191;BME280;19554;42.652;23.364;2023-03-23T09:38:39;94698.38;;;13.97;47.51
33191;BME280;19554;42.652;23.364;2023-03-23T09:44:15;94714.25;;;13.85;46.81
33191;BME280;19554;42.652;23.364;2023-03-23T09:47:00;94711.66;;;13.80;47.49
33191;BME280;19554;42.652;23.364;2023-03-23T09:49:38;94718.34;;;14.14;47.36
33191;BME280;19554;42.652;23.364;2023-03-23T09:52:16;94625.97;;;13.75;46.28
33191;BME280;19554;42.652;23.364;2023-03-23T09:54:48;94702.44;;;14.49;45.21
33191;BME280;19554;42.652;23.364;2023-03-23T09:57:30;94708.56;;;14.40;44.52
33191;BME280;19554;42.652;23.364;2023-03-23T10:00:35;94705.97;;;14.27;45.03
33191;BME280;19554;42.652;23.364;2023-03-23T10:03:14;94702.41;;;14.09;45.36
33191;BME280;19554;42.652;23.364;2023-03-23T10:05:50;94636.09;;;13.78;46.15
33191;BME280;19554;42.652;23.364;2023-03-23T10:08:18;94697.59;;;14.51;45.93
33191;BME280;19554;42.652;23.364;2023-03-23T10:15:56;94661.19;;;14.84;44.47
33191;BME280;19554;42.652;23.364;2023-03-23T10:18:31;94686.19;;;15.11;43.46
33191;BME280;19554;42.652;23.364;2023-03-23T10:20:59;94689.38;;;15.13;42.83
33191;BME280;19554;42.652;23.364;2023-03-23T10:23:35;94698.97;;;14.97;43.58
33191;BME280;19554;42.652;23.364;2023-03-23T10:29:04;94695.50;;;14.87;43.79
33191;BME280;19554;42.652;23.364;2023-03-23T10:31:41;94695.38;;;15.10;43.77
33191;BME280;19554;42.652;23.364;2023-03-23T10:39:54;94678.97;;;15.55;42.59
33191;BME280;19554;42.652;23.364;2023-03-23T10:42:34;94687.69;;;15.60;42.65
33191;BME280;19554;42.652;23.364;2023-03-23T10:45:13;94682.13;;;15.39;41.98
33191;BME280;19554;42.652;23.364;2023-03-23T10:47:44;94677.84;;;15.21;42.11
33191;BME280;19554;42.652;23.364;2023-03-23T10:50:14;94680.19;;;15.14;42.68
33191;BME280;19554;42.652;23.364;2023-03-23T10:52:44;94681.47;;;15.08;43.04
33191;BME280;19554;42.652;23.364;2023-03-23T10:57:46;94678.31;;;15.23;42.86
33191;BME280;19554;42.652;23.364;2023-03-23T11:00:21;94637.44;;;14.69;43.12
33191;BME280;19554;42.652;23.364;2023-03-23T11:03:40;94680.13;;;14.39;43.70
33191;BME280;19554;42.652;23.364;2023-03-23T11:06:09;94672.81;;;14.31;44.58
33191;BME280;19554;42.652;23.364;2023-03-23T11:08:46;94674.88;;;14.34;44.42
33191;BME280;19554;42.652;23.364;2023-03-23T11:11:31;94670.13;;;14.31;44.08
33191;BME280;19554;42.652;23.364;2023-03-23T11:14:01;94624.53;;;13.78;44.41
33191;BME280;19554;42.652;23.364;2023-03-23T11:16:32;94666.41;;;13.87;44.66
33191;BME280;19554;42.652;23.364;2023-03-23T11:19:00;94658.50;;;13.82;44.84
33191;BME280;19554;42.652;23.364;2023-03-23T11:21:37;94658.06;;;13.89;45.48
33191;BME280;19554;42.652;23.364;2023-03-23T11:24:05;94659.56;;;14.04;44.77
33191;BME280;19554;42.652;23.364;2023-03-23T11:26:33;94652.38;;;14.21;44.64
33191;BME280;19554;42.652;23.364;2023-03-23T11:29:18;94646.75;;;14.32;44.45
33191;BME280;19554;42.652;23.364;2023-03-23T11:31:49;94629.13;;;14.39;44.17
33191;BME280;19554;42.652;23.364;2023-03-23T11:34:25;94644.69;;;14.60;43.85
33191;BME280;19554;42.652;23.364;2023-03-23T11:36:55;94614.03;;;14.61;43.45
33191;BME280;19554;42.652;23.364;2023-03-23T11:41:55;94563.97;;;14.25;43.20
33191;BME280;19554;42.652;23.364;2023-03-23T11:44:23;94631.94;;;14.74;43.81
33191;BME280;19554;42.652;23.364;2023-03-23T11:52:42;94628.47;;;15.00;43.22
33191;BME280;19554;42.652;23.364;2023-03-23T11:57:39;94628.41;;;14.65;43.53
33191;BME280;19554;42.652;23.364;2023-03-23T12:00:23;94619.53;;;14.56;43.31
33191;BME280;19554;42.652;23.364;2023-03-23T12:02:53;94622.72;;;14.66;43.65
33191;BME280;19554;42.652;23.364;2023-03-23T12:05:32;94616.25;;;14.76;43.37
33191;BME280;19554;42.652;23.364;2023-03-23T12:11:25;94611.72;;;14.85;43.41
33191;BME280;19554;42.652;23.364;2023-03-23T12:16:58;94538.28;;;14.33;43.46
33191;BME280;19554;42.652;23.364;2023-03-23T12:22:08;94605.41;;;14.99;43.17
33191;BME280;19554;42.652;23.364;2023-03-23T12:27:49;94608.56;;;15.09;42.72
33191;BME280;19554;42.652;23.364;2023-03-23T12:30:31;94616.16;;;15.07;42.97
33191;BME280;19554;42.652;23.364;2023-03-23T12:38:22;94544.84;;;14.75;42.96
33191;BME280;19554;42.652;23.364;2023-03-23T12:43:39;94598.75;;;15.13;42.29
33191;BME280;19554;42.652;23.364;2023-03-23T12:46:14;94602.56;;;15.21;41.53
33191;BME280;19554;42.652;23.364;2023-03-23T12:48:49;94599.53;;;15.31;41.74
33191;BME280;19554;42.652;23.364;2023-03-23T12:51:26;94595.13;;;15.35;41.96
33191;BME280;19554;42.652;23.364;2023-03-23T12:54:12;94594.50;;;15.38;42.10
33191;BME280;19554;42.652;23.364;2023-03-23T12:59:46;94593.53;;;15.17;42.50
33191;BME280;19554;42.652;23.364;2023-03-23T13:02:21;94583.41;;;14.97;43.17
33191;BME280;19554;42.652;23.364;2023-03-23T13:04:52;94599.69;;;14.83;43.50
33191;BME280;19554;42.652;23.364;2023-03-23T13:07:28;94591.63;;;14.74;43.79
33191;BME280;19554;42.652;23.364;2023-03-23T13:10:05;94583.72;;;14.86;43.91
33191;BME280;19554;42.652;23.364;2023-03-23T13:12:34;94544.44;;;14.33;43.96
33191;BME280;19554;42.652;23.364;2023-03-23T13:17:53;94583.38;;;14.62;44.03
33191;BME280;19554;42.652;23.364;2023-03-23T13:23:18;94578.19;;;14.83;43.88
33191;BME280;19554;42.652;23.364;2023-03-23T13:26:00;94571.69;;;14.75;43.71
33191;BME280;19554;42.652;23.364;2023-03-23T13:28:31;94569.81;;;14.67;44.04
33191;BME280;19554;42.652;23.364;2023-03-23T13:33:52;94564.72;;;14.57;44.25
33191;BME280;19554;42.652;23.364;2023-03-23T13:36:35;94483.09;;;14.18;44.45
33191;BME280;19554;42.652;23.364;2023-03-23T13:39:02;94571.88;;;14.96;44.24
33191;BME280;19554;42.652;23.364;2023-03-23T13:41:30;94566.81;;;15.03;43.96
33191;BME280;19554;42.652;23.364;2023-03-23T13:47:34;94559.72;;;14.99;43.32
33191;BME280;19554;42.652;23.364;2023-03-23T14:03:00;94467.69;;;14.50;43.57
33191;BME280;19554;42.652;23.364;2023-03-23T14:05:38;94553.69;;;15.19;43.28
33191;BME280;19554;42.652;23.364;2023-03-23T14:11:01;94534.72;;;15.07;43.49
33191;BME280;19554;42.652;23.364;2023-03-23T14:16:27;94537.84;;;15.44;42.90
33191;BME280;19554;42.652;23.364;2023-03-23T14:18:57;94539.13;;;15.37;42.92
33191;BME280;19554;42.652;23.364;2023-03-23T14:21:48;94538.81;;;15.30;42.97
33191;BME280;19554;42.652;23.364;2023-03-23T14:24:22;94546.28;;;15.25;43.28
33191;BME280;19554;42.652;23.364;2023-03-23T14:26:48;94518.41;;;15.21;43.15
33191;BME280;19554;42.652;23.364;2023-03-23T14:29:18;94539.78;;;15.26;43.28
33191;BME280;19554;42.652;23.364;2023-03-23T14:31:44;94544.38;;;15.25;43.55
33191;BME280;19554;42.652;23.364;2023-03-23T14:34:16;94536.59;;;15.24;43.36
33191;BME280;19554;42.652;23.364;2023-03-23T14:36:43;94546.28;;;15.25;43.43
33191;BME280;19554;42.652;23.364;2023-03-23T14:39:28;94540.72;;;15.04;43.81
33191;BME280;19554;42.652;23.364;2023-03-23T14:42:03;94531.41;;;15.01;44.09
33191;BME280;19554;42.652;23.364;2023-03-23T14:44:32;94476.88;;;14.66;44.31
33191;BME280;19554;42.652;23.364;2023-03-23T14:47:02;94452.56;;;14.54;44.23
33191;BME280;19554;42.652;23.364;2023-03-23T14:49:32;94537.56;;;15.02;44.33
33191;BME280;19554;42.652;23.364;2023-03-23T14:52:08;94545.63;;;15.02;44.28
33191;BME280;19554;42.652;23.364;2023-03-23T14:54:34;94535.97;;;15.01;44.39
33191;BME280;19554;42.652;23.364;2023-03-23T14:57:09;94529.97;;;15.04;43.99